sensor_id;sensor_type;location;lat;lon;timestamp;P1;durP1;ratioP1;P2;durP2;ratioP2
11807;SDS011;5961;42.640;23.380;2023-12-04T00:00:47;7.17;;;4.90;;
11807;SDS011;5961;42.640;23.380;2023-12-04T00:03:14;8.73;;;5.37;;
11807;SDS011;5961;42.640;23.380;2023-12-04T00:05:42;7.30;;;5.27;;
11807;SDS011;5961;42.640;23.380;2023-12-04T00:08:08;6.97;;;4.87;;
11807;SDS011;5961;42.640;23.380;2023-12-04T00:10:37;7.87;;;4.90;;
11807;SDS011;5961;42.640;23.380;2023-12-04T00:13:04;7.27;;;4.93;;
11807;SDS011;5961;42.640;23.380;2023-12-04T00:15:31;5.43;;;4.27;;
11807;SDS011;5961;42.640;23.380;2023-12-04T00:17:57;7.00;;;4.70;;
11807;SDS011;5961;42.640;23.380;2023-12-04T00:20:24;6.83;;;4.90;;
11807;SDS011;5961;42.640;23.380;2023-12-04T00:22:51;7.77;;;5.40;;
11807;SDS011;5961;42.640;23.380;2023-12-04T00:25:17;6.50;;;4.67;;
11807;SDS011;5961;42.640;23.380;2023-12-04T00:27:45;6.47;;;4.57;;
11807;SDS011;5961;42.640;23.380;2023-12-04T00:30:12;6.83;;;5.00;;
11807;SDS011;5961;42.640;23.380;2023-12-04T00:32:39;5.60;;;4.80;;
11807;SDS011;5961;42.640;23.380;2023-12-04T00:35:06;6.70;;;4.70;;
11807;SDS011;5961;42.640;23.380;2023-12-04T00:37:33;7.17;;;5.17;;
11807;SDS011;5961;42.640;23.380;2023-12-04T00:40:02;6.97;;;4.77;;
11807;SDS011;5961;42.640;23.380;2023-12-04T00:42:30;6.00;;;4.70;;
11807;SDS011;5961;42.640;23.380;2023-12-04T00:44:58;5.50;;;4.40;;
11807;SDS011;5961;42.640;23.380;2023-12-04T00:47:24;7.60;;;4.80;;
11807;SDS011;5961;42.640;23.380;2023-12-04T00:49:51;7.33;;;4.47;;
11807;SDS011;5961;42.640;23.380;2023-12-04T00:52:18;5.93;;;4.60;;
11807;SDS011;5961;42.640;23.380;2023-12-04T00:54:44;6.73;;;4.87;;
11807;SDS011;5961;42.640;23.380;2023-12-04T00:57:11;6.43;;;5.07;;
11807;SDS011;5961;42.640;23.380;2023-12-04T00:59:38;6.43;;;4.97;;
11807;SDS011;5961;42.640;23.380;2023-12-04T01:02:06;6.40;;;4.80;;
11807;SDS011;5961;42.640;23.380;2023-12-04T01:04:33;6.70;;;4.77;;
11807;SDS011;5961;42.640;23.380;2023-12-04T01:07:00;7.37;;;5.00;;
11807;SDS011;5961;42.640;23.380;2023-12-04T01:09:27;7.07;;;5.23;;
11807;SDS011;5961;42.640;23.380;2023-12-04T01:11:54;8.87;;;5.10;;
11807;SDS011;5961;42.640;23.380;2023-12-04T01:14:21;7.30;;;4.83;;
11807;SDS011;5961;42.640;23.380;2023-12-04T01:16:48;6.60;;;4.80;;
11807;SDS011;5961;42.640;23.380;2023-12-04T01:19:16;7.30;;;5.07;;
11807;SDS011;5961;42.640;23.380;2023-12-04T01:21:42;7.70;;;5.43;;
11807;SDS011;5961;42.640;23.380;2023-12-04T01:24:09;7.37;;;5.23;;
11807;SDS011;5961;42.640;23.380;2023-12-04T01:26:36;7.30;;;4.60;;
11807;SDS011;5961;42.640;23.380;2023-12-04T01:29:03;6.17;;;4.67;;
11807;SDS011;5961;42.640;23.380;2023-12-04T01:31:30;7.10;;;5.07;;
11807;SDS011;5961;42.640;23.380;2023-12-04T01:33:56;10.60;;;5.73;;
11807;SDS011;5961;42.640;23.380;2023-12-04T01:36:24;7.53;;;5.03;;
11807;SDS011;5961;42.640;23.380;2023-12-04T01:38:51;6.83;;;5.03;;
11807;SDS011;5961;42.640;23.380;2023-12-04T01:41:18;6.37;;;5.20;;
11807;SDS011;5961;42.640;23.380;2023-12-04T01:43:44;8.10;;;4.97;;
11807;SDS011;5961;42.640;23.380;2023-12-04T01:46:11;7.77;;;5.23;;
11807;SDS011;5961;42.640;23.380;2023-12-04T01:48:42;8.00;;;5.10;;
11807;SDS011;5961;42.640;23.380;2023-12-04T01:51:11;7.47;;;5.23;;
11807;SDS011;5961;42.640;23.380;2023-12-04T01:53:40;8.10;;;5.00;;
11807;SDS011;5961;42.640;23.380;2023-12-04T01:56:09;5.70;;;4.60;;
11807;SDS011;5961;42.640;23.380;2023-12-04T01:58:36;7.50;;;4.30;;
11807;SDS011;5961;42.640;23.380;2023-12-04T02:01:04;7.00;;;5.27;;
11807;SDS011;5961;42.640;23.380;2023-12-04T02:03:31;8.47;;;5.40;;
11807;SDS011;5961;42.640;23.380;2023-12-04T02:05:58;7.27;;;5.20;;
11807;SDS011;5961;42.640;23.380;2023-12-04T02:08:27;7.30;;;5.03;;
11807;SDS011;5961;42.640;23.380;2023-12-04T02:10:56;8.97;;;5.30;;
11807;SDS011;5961;42.640;23.380;2023-12-04T02:13:22;8.23;;;5.20;;
11807;SDS011;5961;42.640;23.380;2023-12-04T02:15:51;7.50;;;4.90;;
11807;SDS011;5961;42.640;23.380;2023-12-04T02:18:20;7.40;;;5.30;;
11807;SDS011;5961;42.640;23.380;2023-12-04T02:20:48;6.90;;;5.07;;
11807;SDS011;5961;42.640;23.380;2023-12-04T02:23:14;7.33;;;5.37;;
11807;SDS011;5961;42.640;23.380;2023-12-04T02:25:42;8.03;;;5.20;;
11807;SDS011;5961;42.640;23.380;2023-12-04T02:28:10;7.97;;;5.50;;
11807;SDS011;5961;42.640;23.380;2023-12-04T02:30:39;9.07;;;5.27;;
11807;SDS011;5961;42.640;23.380;2023-12-04T02:33:10;6.97;;;5.17;;
11807;SDS011;5961;42.640;23.380;2023-12-04T02:35:39;6.33;;;4.57;;
11807;SDS011;5961;42.640;23.380;2023-12-04T02:38:09;8.20;;;5.30;;
11807;SDS011;5961;42.640;23.380;2023-12-04T02:40:36;9.47;;;5.77;;
11807;SDS011;5961;42.640;23.380;2023-12-04T02:43:04;6.27;;;4.90;;
11807;SDS011;5961;42.640;23.380;2023-12-04T02:45:31;6.97;;;4.90;;
11807;SDS011;5961;42.640;23.380;2023-12-04T02:47:58;7.13;;;4.97;;
11807;SDS011;5961;42.640;23.380;2023-12-04T02:50:24;8.30;;;5.37;;
11807;SDS011;5961;42.640;23.380;2023-12-04T02:52:51;6.60;;;5.37;;
11807;SDS011;5961;42.640;23.380;2023-12-04T02:55:18;7.57;;;5.07;;
11807;SDS011;5961;42.640;23.380;2023-12-04T02:57:45;6.10;;;4.60;;
11807;SDS011;5961;42.640;23.380;2023-12-04T03:00:13;6.27;;;4.77;;
11807;SDS011;5961;42.640;23.380;2023-12-04T03:02:40;5.80;;;4.43;;
11807;SDS011;5961;42.640;23.380;2023-12-04T03:05:07;7.50;;;5.30;;
11807;SDS011;5961;42.640;23.380;2023-12-04T03:07:34;6.00;;;4.80;;
11807;SDS011;5961;42.640;23.380;2023-12-04T03:10:01;7.43;;;4.87;;
11807;SDS011;5961;42.640;23.380;2023-12-04T03:12:28;7.83;;;5.00;;
11807;SDS011;5961;42.640;23.380;2023-12-04T03:14:55;7.47;;;5.70;;
11807;SDS011;5961;42.640;23.380;2023-12-04T03:17:23;6.13;;;4.73;;
11807;SDS011;5961;42.640;23.380;2023-12-04T03:19:51;6.47;;;5.27;;
11807;SDS011;5961;42.640;23.380;2023-12-04T03:22:17;7.33;;;5.13;;
11807;SDS011;5961;42.640;23.380;2023-12-04T03:24:44;8.00;;;5.40;;
11807;SDS011;5961;42.640;23.380;2023-12-04T03:27:11;7.63;;;5.20;;
11807;SDS011;5961;42.640;23.380;2023-12-04T03:29:38;6.30;;;4.67;;
11807;SDS011;5961;42.640;23.380;2023-12-04T03:32:05;6.40;;;4.80;;
11807;SDS011;5961;42.640;23.380;2023-12-04T03:34:32;6.43;;;4.93;;
11807;SDS011;5961;42.640;23.380;2023-12-04T03:36:59;6.97;;;5.13;;
11807;SDS011;5961;42.640;23.380;2023-12-04T03:39:25;6.10;;;4.87;;
11807;SDS011;5961;42.640;23.380;2023-12-04T03:41:52;6.83;;;4.73;;
11807;SDS011;5961;42.640;23.380;2023-12-04T03:44:19;7.27;;;5.03;;
11807;SDS011;5961;42.640;23.380;2023-12-04T03:46:45;6.63;;;5.20;;
11807;SDS011;5961;42.640;23.380;2023-12-04T03:49:12;7.67;;;5.27;;
11807;SDS011;5961;42.640;23.380;2023-12-04T03:51:40;6.80;;;4.73;;
11807;SDS011;5961;42.640;23.380;2023-12-04T03:54:07;6.37;;;4.97;;
11807;SDS011;5961;42.640;23.380;2023-12-04T03:56:33;5.57;;;4.47;;
11807;SDS011;5961;42.640;23.380;2023-12-04T03:59:00;6.53;;;4.67;;
11807;SDS011;5961;42.640;23.380;2023-12-04T04:01:27;6.93;;;4.83;;
11807;SDS011;5961;42.640;23.380;2023-12-04T04:03:53;7.27;;;4.57;;
11807;SDS011;5961;42.640;23.380;2023-12-04T04:06:20;8.20;;;5.00;;
11807;SDS011;5961;42.640;23.380;2023-12-04T04:08:49;7.17;;;4.77;;
11807;SDS011;5961;42.640;23.380;2023-12-04T04:11:15;7.10;;;5.17;;
11807;SDS011;5961;42.640;23.380;2023-12-04T04:13:42;6.27;;;4.50;;
11807;SDS011;5961;42.640;23.380;2023-12-04T04:16:12;8.93;;;4.97;;
11807;SDS011;5961;42.640;23.380;2023-12-04T04:18:41;6.10;;;4.47;;
11807;SDS011;5961;42.640;23.380;2023-12-04T04:21:08;7.73;;;5.47;;
11807;SDS011;5961;42.640;23.380;2023-12-04T04:23:35;5.93;;;4.50;;
11807;SDS011;5961;42.640;23.380;2023-12-04T04:26:03;8.17;;;4.60;;
11807;SDS011;5961;42.640;23.380;2023-12-04T04:28:30;7.00;;;5.00;;
11807;SDS011;5961;42.640;23.380;2023-12-04T04:30:57;8.30;;;5.10;;
11807;SDS011;5961;42.640;23.380;2023-12-04T04:33:24;8.37;;;4.90;;
11807;SDS011;5961;42.640;23.380;2023-12-04T04:35:50;6.97;;;4.83;;
11807;SDS011;5961;42.640;23.380;2023-12-04T04:38:17;7.00;;;4.67;;
11807;SDS011;5961;42.640;23.380;2023-12-04T04:40:44;5.50;;;4.70;;
11807;SDS011;5961;42.640;23.380;2023-12-04T04:43:12;6.33;;;4.80;;
11807;SDS011;5961;42.640;23.380;2023-12-04T04:45:38;7.27;;;4.93;;
11807;SDS011;5961;42.640;23.380;2023-12-04T04:48:05;6.53;;;4.83;;
11807;SDS011;5961;42.640;23.380;2023-12-04T04:50:32;6.07;;;4.80;;
11807;SDS011;5961;42.640;23.380;2023-12-04T04:52:58;6.37;;;4.50;;
11807;SDS011;5961;42.640;23.380;2023-12-04T04:55:25;6.23;;;4.67;;
11807;SDS011;5961;42.640;23.380;2023-12-04T04:57:52;6.30;;;4.00;;
11807;SDS011;5961;42.640;23.380;2023-12-04T05:00:20;6.47;;;4.97;;
11807;SDS011;5961;42.640;23.380;2023-12-04T05:02:47;7.30;;;4.83;;
11807;SDS011;5961;42.640;23.380;2023-12-04T05:05:13;5.30;;;4.27;;
11807;SDS011;5961;42.640;23.380;2023-12-04T05:07:40;6.20;;;4.40;;
11807;SDS011;5961;42.640;23.380;2023-12-04T05:10:07;6.47;;;4.37;;
11807;SDS011;5961;42.640;23.380;2023-12-04T05:12:34;7.47;;;4.93;;
11807;SDS011;5961;42.640;23.380;2023-12-04T05:15:01;5.97;;;4.43;;
11807;SDS011;5961;42.640;23.380;2023-12-04T05:17:29;6.63;;;4.70;;
11807;SDS011;5961;42.640;23.380;2023-12-04T05:19:56;6.97;;;4.50;;
11807;SDS011;5961;42.640;23.380;2023-12-04T05:22:24;6.13;;;4.30;;
11807;SDS011;5961;42.640;23.380;2023-12-04T05:24:50;6.13;;;4.47;;
11807;SDS011;5961;42.640;23.380;2023-12-04T05:27:17;6.73;;;4.80;;
11807;SDS011;5961;42.640;23.380;2023-12-04T05:29:44;7.90;;;4.87;;
11807;SDS011;5961;42.640;23.380;2023-12-04T05:32:11;6.47;;;4.50;;
11807;SDS011;5961;42.640;23.380;2023-12-04T05:34:40;6.57;;;4.50;;
11807;SDS011;5961;42.640;23.380;2023-12-04T05:37:07;7.10;;;4.90;;
11807;SDS011;5961;42.640;23.380;2023-12-04T05:39:33;6.43;;;4.77;;
11807;SDS011;5961;42.640;23.380;2023-12-04T05:42:00;6.50;;;4.07;;
11807;SDS011;5961;42.640;23.380;2023-12-04T05:44:27;6.27;;;4.50;;
11807;SDS011;5961;42.640;23.380;2023-12-04T05:46:53;10.20;;;4.83;;
11807;SDS011;5961;42.640;23.380;2023-12-04T05:49:20;8.17;;;5.77;;
11807;SDS011;5961;42.640;23.380;2023-12-04T05:51:48;6.20;;;4.80;;
11807;SDS011;5961;42.640;23.380;2023-12-04T05:54:15;6.53;;;4.87;;
11807;SDS011;5961;42.640;23.380;2023-12-04T05:56:41;12.07;;;5.37;;
11807;SDS011;5961;42.640;23.380;2023-12-04T05:59:08;6.57;;;4.73;;
11807;SDS011;5961;42.640;23.380;2023-12-04T06:01:36;10.83;;;6.63;;
11807;SDS011;5961;42.640;23.380;2023-12-04T06:04:03;7.10;;;5.40;;
11807;SDS011;5961;42.640;23.380;2023-12-04T06:06:30;8.07;;;5.53;;
11807;SDS011;5961;42.640;23.380;2023-12-04T06:08:58;8.97;;;5.43;;
11807;SDS011;5961;42.640;23.380;2023-12-04T06:11:24;8.77;;;5.53;;
11807;SDS011;5961;42.640;23.380;2023-12-04T06:13:51;10.07;;;5.77;;
11807;SDS011;5961;42.640;23.380;2023-12-04T06:16:18;8.27;;;5.93;;
11807;SDS011;5961;42.640;23.380;2023-12-04T06:18:44;8.13;;;5.43;;
11807;SDS011;5961;42.640;23.380;2023-12-04T06:21:11;7.57;;;6.13;;
11807;SDS011;5961;42.640;23.380;2023-12-04T06:23:38;7.87;;;6.03;;
11807;SDS011;5961;42.640;23.380;2023-12-04T06:26:07;8.83;;;5.57;;
11807;SDS011;5961;42.640;23.380;2023-12-04T06:28:35;7.93;;;5.83;;
11807;SDS011;5961;42.640;23.380;2023-12-04T06:31:02;7.20;;;4.90;;
11807;SDS011;5961;42.640;23.380;2023-12-04T06:33:30;7.47;;;5.80;;
11807;SDS011;5961;42.640;23.380;2023-12-04T06:35:57;7.63;;;5.73;;
11807;SDS011;5961;42.640;23.380;2023-12-04T06:38:24;8.23;;;5.30;;
11807;SDS011;5961;42.640;23.380;2023-12-04T06:40:52;8.63;;;5.93;;
11807;SDS011;5961;42.640;23.380;2023-12-04T06:43:21;9.50;;;6.10;;
11807;SDS011;5961;42.640;23.380;2023-12-04T06:45:48;8.57;;;6.10;;
11807;SDS011;5961;42.640;23.380;2023-12-04T06:48:15;7.90;;;5.80;;
11807;SDS011;5961;42.640;23.380;2023-12-04T06:50:45;7.77;;;5.07;;
11807;SDS011;5961;42.640;23.380;2023-12-04T06:53:12;8.43;;;5.77;;
11807;SDS011;5961;42.640;23.380;2023-12-04T06:55:38;7.93;;;5.50;;
11807;SDS011;5961;42.640;23.380;2023-12-04T06:58:05;7.87;;;5.23;;
11807;SDS011;5961;42.640;23.380;2023-12-04T07:00:33;7.73;;;5.50;;
11807;SDS011;5961;42.640;23.380;2023-12-04T07:03:00;7.43;;;5.87;;
11807;SDS011;5961;42.640;23.380;2023-12-04T07:05:26;8.53;;;5.77;;
11807;SDS011;5961;42.640;23.380;2023-12-04T07:07:53;8.77;;;6.40;;
11807;SDS011;5961;42.640;23.380;2023-12-04T07:10:20;9.73;;;5.90;;
11807;SDS011;5961;42.640;23.380;2023-12-04T07:12:47;10.13;;;6.67;;
11807;SDS011;5961;42.640;23.380;2023-12-04T07:15:14;9.50;;;5.97;;
11807;SDS011;5961;42.640;23.380;2023-12-04T07:17:42;9.10;;;6.33;;
11807;SDS011;5961;42.640;23.380;2023-12-04T07:20:09;8.77;;;6.13;;
11807;SDS011;5961;42.640;23.380;2023-12-04T07:22:37;10.40;;;6.13;;
11807;SDS011;5961;42.640;23.380;2023-12-04T07:25:04;8.20;;;5.70;;
11807;SDS011;5961;42.640;23.380;2023-12-04T07:27:32;8.33;;;6.30;;
11807;SDS011;5961;42.640;23.380;2023-12-04T07:29:58;10.03;;;6.20;;
11807;SDS011;5961;42.640;23.380;2023-12-04T07:32:25;11.30;;;6.27;;
11807;SDS011;5961;42.640;23.380;2023-12-04T07:34:53;10.63;;;6.53;;
11807;SDS011;5961;42.640;23.380;2023-12-04T07:37:20;8.33;;;6.23;;
11807;SDS011;5961;42.640;23.380;2023-12-04T07:39:47;8.07;;;5.67;;
11807;SDS011;5961;42.640;23.380;2023-12-04T07:42:13;9.17;;;6.00;;
11807;SDS011;5961;42.640;23.380;2023-12-04T07:44:40;9.03;;;5.60;;
11807;SDS011;5961;42.640;23.380;2023-12-04T07:47:07;9.03;;;6.20;;
11807;SDS011;5961;42.640;23.380;2023-12-04T07:49:33;8.33;;;5.67;;
11807;SDS011;5961;42.640;23.380;2023-12-04T07:52:02;7.73;;;5.30;;
11807;SDS011;5961;42.640;23.380;2023-12-04T07:54:28;10.53;;;5.93;;
11807;SDS011;5961;42.640;23.380;2023-12-04T07:56:55;8.60;;;5.80;;
11807;SDS011;5961;42.640;23.380;2023-12-04T07:59:22;10.00;;;5.47;;
11807;SDS011;5961;42.640;23.380;2023-12-04T08:01:48;7.53;;;5.73;;
11807;SDS011;5961;42.640;23.380;2023-12-04T08:04:15;7.80;;;5.17;;
11807;SDS011;5961;42.640;23.380;2023-12-04T08:06:42;7.63;;;5.23;;
11807;SDS011;5961;42.640;23.380;2023-12-04T08:09:10;7.57;;;5.20;;
11807;SDS011;5961;42.640;23.380;2023-12-04T08:11:37;6.37;;;5.20;;
11807;SDS011;5961;42.640;23.380;2023-12-04T08:14:04;7.93;;;5.50;;
11807;SDS011;5961;42.640;23.380;2023-12-04T08:16:32;8.33;;;5.50;;
11807;SDS011;5961;42.640;23.380;2023-12-04T08:18:59;7.33;;;4.63;;
11807;SDS011;5961;42.640;23.380;2023-12-04T08:21:25;6.13;;;4.50;;
11807;SDS011;5961;42.640;23.380;2023-12-04T08:23:52;6.90;;;4.63;;
11807;SDS011;5961;42.640;23.380;2023-12-04T08:26:23;6.20;;;4.60;;
11807;SDS011;5961;42.640;23.380;2023-12-04T08:28:50;5.67;;;4.50;;
11807;SDS011;5961;42.640;23.380;2023-12-04T08:31:17;6.43;;;4.47;;
11807;SDS011;5961;42.640;23.380;2023-12-04T08:33:44;5.70;;;4.37;;
11807;SDS011;5961;42.640;23.380;2023-12-04T08:36:11;7.30;;;4.40;;
11807;SDS011;5961;42.640;23.380;2023-12-04T08:38:38;8.10;;;4.80;;
11807;SDS011;5961;42.640;23.380;2023-12-04T08:41:05;6.03;;;4.63;;
11807;SDS011;5961;42.640;23.380;2023-12-04T08:43:33;5.77;;;4.67;;
11807;SDS011;5961;42.640;23.380;2023-12-04T08:46:00;5.13;;;3.67;;
11807;SDS011;5961;42.640;23.380;2023-12-04T08:48:26;5.37;;;4.03;;
11807;SDS011;5961;42.640;23.380;2023-12-04T08:50:53;6.30;;;4.37;;
11807;SDS011;5961;42.640;23.380;2023-12-04T08:53:20;5.23;;;4.30;;
11807;SDS011;5961;42.640;23.380;2023-12-04T08:55:47;5.73;;;4.10;;
11807;SDS011;5961;42.640;23.380;2023-12-04T08:58:13;6.40;;;4.30;;
11807;SDS011;5961;42.640;23.380;2023-12-04T09:00:41;4.80;;;3.77;;
11807;SDS011;5961;42.640;23.380;2023-12-04T09:03:08;7.57;;;5.17;;
11807;SDS011;5961;42.640;23.380;2023-12-04T09:05:36;5.77;;;4.17;;
11807;SDS011;5961;42.640;23.380;2023-12-04T09:08:03;7.83;;;4.30;;
11807;SDS011;5961;42.640;23.380;2023-12-04T09:10:30;5.53;;;4.30;;
11807;SDS011;5961;42.640;23.380;2023-12-04T09:12:57;6.70;;;4.33;;
11807;SDS011;5961;42.640;23.380;2023-12-04T09:15:23;5.77;;;4.43;;
11807;SDS011;5961;42.640;23.380;2023-12-04T09:17:51;6.13;;;4.00;;
11807;SDS011;5961;42.640;23.380;2023-12-04T09:20:18;5.87;;;4.10;;
11807;SDS011;5961;42.640;23.380;2023-12-04T09:22:45;6.57;;;3.90;;
11807;SDS011;5961;42.640;23.380;2023-12-04T09:25:11;5.73;;;4.30;;
11807;SDS011;5961;42.640;23.380;2023-12-04T09:27:38;4.87;;;4.33;;
11807;SDS011;5961;42.640;23.380;2023-12-04T09:30:06;7.67;;;4.10;;
11807;SDS011;5961;42.640;23.380;2023-12-04T09:32:33;5.57;;;4.23;;
11807;SDS011;5961;42.640;23.380;2023-12-04T09:35:01;7.83;;;5.00;;
11807;SDS011;5961;42.640;23.380;2023-12-04T09:37:28;6.30;;;4.30;;
11807;SDS011;5961;42.640;23.380;2023-12-04T09:39:55;7.87;;;4.80;;
11807;SDS011;5961;42.640;23.380;2023-12-04T09:42:21;6.03;;;4.43;;
11807;SDS011;5961;42.640;23.380;2023-12-04T09:44:49;6.60;;;4.60;;
11807;SDS011;5961;42.640;23.380;2023-12-04T09:47:20;6.30;;;4.63;;
11807;SDS011;5961;42.640;23.380;2023-12-04T09:49:49;5.63;;;3.60;;
11807;SDS011;5961;42.640;23.380;2023-12-04T09:52:20;7.20;;;3.73;;
11807;SDS011;5961;42.640;23.380;2023-12-04T09:54:46;6.33;;;4.27;;
11807;SDS011;5961;42.640;23.380;2023-12-04T09:57:13;5.90;;;4.20;;
11807;SDS011;5961;42.640;23.380;2023-12-04T09:59:40;6.60;;;4.67;;
11807;SDS011;5961;42.640;23.380;2023-12-04T10:02:09;7.50;;;4.90;;
11807;SDS011;5961;42.640;23.380;2023-12-04T10:04:36;6.03;;;4.00;;
11807;SDS011;5961;42.640;23.380;2023-12-04T10:07:03;6.70;;;4.63;;
11807;SDS011;5961;42.640;23.380;2023-12-04T10:09:31;5.53;;;4.00;;
11807;SDS011;5961;42.640;23.380;2023-12-04T10:11:58;5.10;;;4.20;;
11807;SDS011;5961;42.640;23.380;2023-12-04T10:14:25;8.03;;;4.43;;
11807;SDS011;5961;42.640;23.380;2023-12-04T10:16:52;5.90;;;4.30;;
11807;SDS011;5961;42.640;23.380;2023-12-04T10:19:19;5.73;;;4.13;;
11807;SDS011;5961;42.640;23.380;2023-12-04T10:21:48;5.80;;;4.00;;
11807;SDS011;5961;42.640;23.380;2023-12-04T10:24:26;4.63;;;3.83;;
11807;SDS011;5961;42.640;23.380;2023-12-04T10:26:55;5.60;;;4.00;;
11807;SDS011;5961;42.640;23.380;2023-12-04T10:29:23;4.83;;;4.10;;
11807;SDS011;5961;42.640;23.380;2023-12-04T10:31:49;6.50;;;4.43;;
11807;SDS011;5961;42.640;23.380;2023-12-04T10:34:18;7.83;;;4.50;;
11807;SDS011;5961;42.640;23.380;2023-12-04T10:36:46;6.43;;;4.20;;
11807;SDS011;5961;42.640;23.380;2023-12-04T10:39:13;5.77;;;4.43;;
11807;SDS011;5961;42.640;23.380;2023-12-04T10:41:39;5.70;;;4.30;;
11807;SDS011;5961;42.640;23.380;2023-12-04T10:44:07;7.53;;;4.57;;
11807;SDS011;5961;42.640;23.380;2023-12-04T10:46:34;7.10;;;4.80;;
11807;SDS011;5961;42.640;23.380;2023-12-04T10:49:02;9.13;;;5.30;;
11807;SDS011;5961;42.640;23.380;2023-12-04T10:51:30;7.77;;;5.10;;
11807;SDS011;5961;42.640;23.380;2023-12-04T10:53:58;8.17;;;4.60;;
11807;SDS011;5961;42.640;23.380;2023-12-04T10:56:27;5.87;;;4.33;;
11807;SDS011;5961;42.640;23.380;2023-12-04T10:58:58;7.13;;;4.43;;
11807;SDS011;5961;42.640;23.380;2023-12-04T11:01:29;5.60;;;4.23;;
11807;SDS011;5961;42.640;23.380;2023-12-04T11:03:58;8.50;;;4.50;;
11807;SDS011;5961;42.640;23.380;2023-12-04T11:06:32;8.60;;;4.93;;
11807;SDS011;5961;42.640;23.380;2023-12-04T11:09:05;7.37;;;5.20;;
11807;SDS011;5961;42.640;23.380;2023-12-04T11:11:34;7.20;;;5.07;;
11807;SDS011;5961;42.640;23.380;2023-12-04T11:14:03;6.77;;;5.13;;
11807;SDS011;5961;42.640;23.380;2023-12-04T11:16:34;6.63;;;4.27;;
11807;SDS011;5961;42.640;23.380;2023-12-04T11:19:06;6.00;;;4.87;;
11807;SDS011;5961;42.640;23.380;2023-12-04T11:21:42;6.90;;;4.53;;
11807;SDS011;5961;42.640;23.380;2023-12-04T11:24:11;7.17;;;4.83;;
11807;SDS011;5961;42.640;23.380;2023-12-04T11:26:38;6.47;;;4.27;;
11807;SDS011;5961;42.640;23.380;2023-12-04T11:29:06;6.70;;;4.23;;
11807;SDS011;5961;42.640;23.380;2023-12-04T11:31:35;7.83;;;5.00;;
11807;SDS011;5961;42.640;23.380;2023-12-04T11:34:02;8.57;;;4.90;;
11807;SDS011;5961;42.640;23.380;2023-12-04T11:36:29;6.60;;;4.77;;
11807;SDS011;5961;42.640;23.380;2023-12-04T11:38:56;8.97;;;4.83;;
11807;SDS011;5961;42.640;23.380;2023-12-04T11:41:23;6.83;;;4.60;;
11807;SDS011;5961;42.640;23.380;2023-12-04T11:43:51;5.80;;;4.57;;
11807;SDS011;5961;42.640;23.380;2023-12-04T11:46:18;7.50;;;5.10;;
11807;SDS011;5961;42.640;23.380;2023-12-04T11:48:49;6.00;;;4.77;;
11807;SDS011;5961;42.640;23.380;2023-12-04T11:51:44;8.80;;;5.27;;
11807;SDS011;5961;42.640;23.380;2023-12-04T11:54:16;5.23;;;4.40;;
11807;SDS011;5961;42.640;23.380;2023-12-04T11:56:56;6.37;;;4.73;;
11807;SDS011;5961;42.640;23.380;2023-12-04T11:59:26;6.67;;;5.03;;
11807;SDS011;5961;42.640;23.380;2023-12-04T12:01:54;7.87;;;4.73;;
11807;SDS011;5961;42.640;23.380;2023-12-04T12:04:23;8.93;;;5.23;;
11807;SDS011;5961;42.640;23.380;2023-12-04T12:06:51;7.77;;;5.13;;
11807;SDS011;5961;42.640;23.380;2023-12-04T12:09:18;6.67;;;4.87;;
11807;SDS011;5961;42.640;23.380;2023-12-04T12:11:45;9.53;;;5.60;;
11807;SDS011;5961;42.640;23.380;2023-12-04T12:14:12;6.27;;;4.80;;
11807;SDS011;5961;42.640;23.380;2023-12-04T12:16:39;6.33;;;5.10;;
11807;SDS011;5961;42.640;23.380;2023-12-04T12:19:06;7.37;;;4.80;;
11807;SDS011;5961;42.640;23.380;2023-12-04T12:21:34;7.23;;;5.50;;
11807;SDS011;5961;42.640;23.380;2023-12-04T12:24:02;7.20;;;5.40;;
11807;SDS011;5961;42.640;23.380;2023-12-04T12:26:31;8.03;;;5.13;;
11807;SDS011;5961;42.640;23.380;2023-12-04T12:28:58;7.80;;;5.50;;
11807;SDS011;5961;42.640;23.380;2023-12-04T12:31:25;7.13;;;5.60;;
11807;SDS011;5961;42.640;23.380;2023-12-04T12:33:51;8.60;;;5.77;;
11807;SDS011;5961;42.640;23.380;2023-12-04T12:36:18;7.73;;;5.80;;
11807;SDS011;5961;42.640;23.380;2023-12-04T12:38:46;6.70;;;5.80;;
11807;SDS011;5961;42.640;23.380;2023-12-04T12:41:15;7.10;;;6.07;;
11807;SDS011;5961;42.640;23.380;2023-12-04T12:43:42;7.23;;;5.90;;
11807;SDS011;5961;42.640;23.380;2023-12-04T12:46:09;8.23;;;5.93;;
11807;SDS011;5961;42.640;23.380;2023-12-04T12:48:36;8.93;;;6.03;;
11807;SDS011;5961;42.640;23.380;2023-12-04T12:51:03;7.60;;;6.00;;
11807;SDS011;5961;42.640;23.380;2023-12-04T12:53:31;8.87;;;6.27;;
11807;SDS011;5961;42.640;23.380;2023-12-04T12:56:00;7.20;;;5.97;;
11807;SDS011;5961;42.640;23.380;2023-12-04T12:58:27;9.13;;;6.80;;
11807;SDS011;5961;42.640;23.380;2023-12-04T13:00:54;8.33;;;7.37;;
11807;SDS011;5961;42.640;23.380;2023-12-04T13:03:21;11.90;;;7.37;;
11807;SDS011;5961;42.640;23.380;2023-12-04T13:05:48;9.40;;;7.67;;
11807;SDS011;5961;42.640;23.380;2023-12-04T13:08:14;10.30;;;7.60;;
11807;SDS011;5961;42.640;23.380;2023-12-04T13:10:41;11.83;;;8.10;;
11807;SDS011;5961;42.640;23.380;2023-12-04T13:13:10;15.77;;;8.93;;
11807;SDS011;5961;42.640;23.380;2023-12-04T13:15:37;10.77;;;7.63;;
11807;SDS011;5961;42.640;23.380;2023-12-04T13:18:04;14.37;;;9.57;;
11807;SDS011;5961;42.640;23.380;2023-12-04T13:20:31;12.37;;;8.80;;
11807;SDS011;5961;42.640;23.380;2023-12-04T13:22:57;12.20;;;9.67;;
11807;SDS011;5961;42.640;23.380;2023-12-04T13:25:24;10.67;;;8.80;;
11807;SDS011;5961;42.640;23.380;2023-12-04T13:27:51;13.13;;;9.13;;
11807;SDS011;5961;42.640;23.380;2023-12-04T13:30:19;18.50;;;9.77;;
11807;SDS011;5961;42.640;23.380;2023-12-04T13:32:46;13.30;;;9.13;;
11807;SDS011;5961;42.640;23.380;2023-12-04T13:35:15;11.73;;;9.30;;
11807;SDS011;5961;42.640;23.380;2023-12-04T13:37:42;12.70;;;8.83;;
11807;SDS011;5961;42.640;23.380;2023-12-04T13:40:08;14.13;;;9.30;;
11807;SDS011;5961;42.640;23.380;2023-12-04T13:42:40;16.17;;;10.63;;
11807;SDS011;5961;42.640;23.380;2023-12-04T13:45:26;13.97;;;8.60;;
11807;SDS011;5961;42.640;23.380;2023-12-04T13:47:53;12.60;;;9.50;;
11807;SDS011;5961;42.640;23.380;2023-12-04T13:50:20;10.90;;;8.53;;
11807;SDS011;5961;42.640;23.380;2023-12-04T13:52:46;11.90;;;8.17;;
11807;SDS011;5961;42.640;23.380;2023-12-04T13:55:20;13.20;;;8.70;;
11807;SDS011;5961;42.640;23.380;2023-12-04T13:58:01;13.03;;;8.60;;
11807;SDS011;5961;42.640;23.380;2023-12-04T14:00:36;14.73;;;8.80;;
11807;SDS011;5961;42.640;23.380;2023-12-04T14:03:03;14.17;;;8.70;;
11807;SDS011;5961;42.640;23.380;2023-12-04T14:05:32;17.43;;;10.20;;
11807;SDS011;5961;42.640;23.380;2023-12-04T14:07:59;14.60;;;10.33;;
11807;SDS011;5961;42.640;23.380;2023-12-04T14:10:25;14.03;;;9.30;;
11807;SDS011;5961;42.640;23.380;2023-12-04T14:12:53;11.40;;;8.93;;
11807;SDS011;5961;42.640;23.380;2023-12-04T14:15:20;19.60;;;8.77;;
11807;SDS011;5961;42.640;23.380;2023-12-04T14:17:48;13.20;;;8.77;;
11807;SDS011;5961;42.640;23.380;2023-12-04T14:20:15;12.60;;;8.87;;
11807;SDS011;5961;42.640;23.380;2023-12-04T14:22:43;14.53;;;10.50;;
11807;SDS011;5961;42.640;23.380;2023-12-04T14:25:11;12.87;;;8.50;;
11807;SDS011;5961;42.640;23.380;2023-12-04T14:27:38;12.63;;;8.63;;
11807;SDS011;5961;42.640;23.380;2023-12-04T14:30:06;17.00;;;9.77;;
11807;SDS011;5961;42.640;23.380;2023-12-04T14:32:34;16.27;;;9.33;;
11807;SDS011;5961;42.640;23.380;2023-12-04T14:35:03;14.17;;;8.30;;
11807;SDS011;5961;42.640;23.380;2023-12-04T14:37:30;10.70;;;8.50;;
11807;SDS011;5961;42.640;23.380;2023-12-04T14:39:57;16.43;;;9.07;;
11807;SDS011;5961;42.640;23.380;2023-12-04T14:42:24;13.43;;;9.07;;
11807;SDS011;5961;42.640;23.380;2023-12-04T14:44:50;16.07;;;8.63;;
11807;SDS011;5961;42.640;23.380;2023-12-04T14:47:17;12.10;;;8.40;;